Time;durP1;ratioP1;P1;durP2;ratioP2;P2;SDS_P1;SDS_P2;PMS_P1;PMS_P2;Temp;Humidity;BMP_temperature;BMP_pressure;BME280_temperature;BME280_humidity;BME280_pressure;Samples;Min_cycle;Max_cycle;Signal;HPM_P1;HPM_P2
2021/04/08 00:01:46;;;;;;;2.65;2.17;;;1.00;99.90;;;;;;5035158;28;20102;-75
2021/04/08 00:04:11;;;;;;;3.58;2.42;;;0.90;99.90;;;;;;5052887;28;20072;-75
2021/04/08 00:06:37;;;;;;;2.83;2.08;;;1.00;99.90;;;;;;5052883;28;20170;-76
2021/04/08 00:09:03;;;;;;;3.20;2.35;;;1.10;99.90;;;;;;5051603;28;20641;-75
2021/04/08 00:11:28;;;;;;;2.88;2.33;;;1.10;99.90;;;;;;5051856;28;20105;-75
2021/04/08 00:13:54;;;;;;;3.33;1.85;;;1.10;99.90;;;;;;5045205;28;20554;-74
2021/04/08 00:16:19;;;;;;;2.75;1.77;;;1.00;99.90;;;;;;5043686;28;20070;-75
2021/04/08 00:18:45;;;;;;;6.10;2.00;;;0.90;99.90;;;;;;5024994;28;20077;-75
2021/04/08 00:21:11;;;;;;;4.22;2.30;;;1.00;99.90;;;;;;5027090;28;20112;-76
2021/04/08 00:23:36;;;;;;;3.72;2.05;;;1.00;99.90;;;;;;5025475;28;20119;-75
2021/04/08 00:26:02;;;;;;;4.13;2.08;;;1.00;99.90;;;;;;5048876;28;20860;-76
2021/04/08 00:28:28;;;;;;;5.88;2.30;;;1.10;99.90;;;;;;5043773;28;20070;-75
2021/04/08 00:30:55;;;;;;;6.47;2.05;;;1.10;99.90;;;;;;5031932;28;20544;-75
2021/04/08 00:33:21;;;;;;;4.85;2.20;;;1.10;99.90;;;;;;5040084;28;20130;-75
2021/04/08 00:35:47;;;;;;;4.75;2.03;;;1.00;99.90;;;;;;5037509;28;20074;-74
2021/04/08 00:38:13;;;;;;;3.90;2.30;;;1.00;99.90;;;;;;5044023;28;20552;-75
2021/04/08 00:40:40;;;;;;;5.03;1.85;;;0.90;99.90;;;;;;5050758;28;20192;-75
2021/04/08 00:43:05;;;;;;;4.25;2.28;;;0.90;99.90;;;;;;5036701;28;20542;-75
2021/04/08 00:45:32;;;;;;;3.95;2.75;;;0.90;99.90;;;;;;5052216;28;20096;-75
2021/04/08 00:47:58;;;;;;;5.95;2.10;;;0.80;99.90;;;;;;5045398;28;20084;-75
2021/04/08 00:50:24;;;;;;;3.28;1.63;;;0.90;99.90;;;;;;5033716;28;20176;-75
2021/04/08 00:52:59;;;;;;;3.33;1.98;;;0.80;99.90;;;;;;5045516;28;20077;-75
2021/04/08 00:55:27;;;;;;;2.92;2.00;;;0.90;99.90;;;;;;5030195;28;20096;-76
2021/04/08 00:57:55;;;;;;;6.05;2.38;;;0.80;99.90;;;;;;5036092;28;20293;-75
2021/04/08 01:00:23;;;;;;;4.03;1.90;;;0.90;99.90;;;;;;5047667;28;20147;-75
2021/04/08 01:02:48;;;;;;;2.15;1.75;;;1.00;99.90;;;;;;5014961;28;20070;-75
2021/04/08 01:05:14;;;;;;;4.40;2.17;;;1.10;99.90;;;;;;5032791;28;20070;-75
2021/04/08 01:07:40;;;;;;;3.17;2.10;;;0.90;99.90;;;;;;5049016;28;20085;-75
2021/04/08 01:10:08;;;;;;;5.32;2.13;;;0.90;99.90;;;;;;5052376;28;20148;-75
2021/04/08 01:12:33;;;;;;;3.13;2.50;;;1.10;99.90;;;;;;5052507;28;20074;-75
2021/04/08 01:15:00;;;;;;;7.78;2.00;;;1.00;99.90;;;;;;5051835;28;20450;-77
2021/04/08 01:17:34;;;;;;;3.42;2.00;;;0.90;99.90;;;;;;5039677;28;20183;-75
2021/04/08 01:20:16;;;;;;;2.75;1.73;;;1.10;99.90;;;;;;5019589;28;20103;-75
2021/04/08 01:22:54;;;;;;;3.53;2.17;;;1.10;99.90;;;;;;5047092;28;20126;-75
2021/04/08 01:25:57;;;;;;;3.50;1.85;;;1.10;99.90;;;;;;5047147;28;20092;-75
2021/04/08 01:28:36;;;;;;;3.08;2.00;;;1.00;99.90;;;;;;5035039;28;20076;-75
2021/04/08 01:31:10;;;;;;;2.85;1.92;;;1.00;99.90;;;;;;5031879;28;20107;-75
2021/04/08 01:33:45;;;;;;;2.15;1.70;;;1.00;99.90;;;;;;5054511;28;20447;-75
2021/04/08 01:36:18;;;;;;;3.75;1.75;;;1.10;99.90;;;;;;5046099;28;20077;-75
2021/04/08 01:38:48;;;;;;;2.63;2.00;;;1.10;99.90;;;;;;5052345;28;20516;-75
2021/04/08 01:41:18;;;;;;;5.25;1.77;;;1.10;99.90;;;;;;5035078;28;20090;-74
2021/04/08 01:43:45;;;;;;;2.78;1.25;;;1.10;99.90;;;;;;5042145;28;20069;-75
2021/04/08 01:46:14;;;;;;;2.25;1.70;;;1.10;99.90;;;;;;5031513;28;20084;-75
2021/04/08 01:48:42;;;;;;;4.45;2.00;;;1.10;99.90;;;;;;5036587;28;20076;-75
2021/04/08 01:51:09;;;;;;;4.32;2.17;;;1.10;99.90;;;;;;5032785;28;20463;-76
2021/04/08 01:53:43;;;;;;;5.78;1.77;;;1.10;99.90;;;;;;5035186;28;20429;-78
2021/04/08 01:56:10;;;;;;;5.22;2.13;;;1.10;99.90;;;;;;5031547;28;20066;-76
2021/04/08 01:58:37;;;;;;;3.33;2.00;;;1.20;99.90;;;;;;5033737;28;20208;-77
2021/04/08 02:01:03;;;;;;;4.22;1.55;;;1.20;99.90;;;;;;5036966;28;20108;-76
2021/04/08 02:03:31;;;;;;;3.20;1.80;;;1.10;99.90;;;;;;5029852;28;20092;-77
2021/04/08 02:05:59;;;;;;;1.92;1.50;;;1.20;99.90;;;;;;5046852;28;20128;-76
2021/04/08 02:08:26;;;;;;;3.88;1.67;;;1.30;99.90;;;;;;5033343;28;20081;-76
2021/04/08 02:10:52;;;;;;;2.15;1.67;;;1.20;99.90;;;;;;5033357;28;20176;-76
2021/04/08 02:13:19;;;;;;;5.30;1.95;;;1.30;99.90;;;;;;5032951;28;20086;-76
2021/04/08 02:15:46;;;;;;;2.67;1.58;;;1.30;99.90;;;;;;5032847;28;20082;-76
2021/04/08 02:18:22;;;;;;;3.17;2.03;;;1.30;99.90;;;;;;5036287;28;20087;-76
2021/04/08 02:20:50;;;;;;;2.92;1.65;;;1.30;99.90;;;;;;5049675;28;20466;-76
2021/04/08 02:23:25;;;;;;;3.72;1.85;;;1.30;99.90;;;;;;5028280;28;20074;-76
2021/04/08 02:25:53;;;;;;;3.40;1.90;;;1.20;99.90;;;;;;5029950;28;20447;-76
2021/04/08 02:28:21;;;;;;;2.90;1.95;;;1.30;99.90;;;;;;5013114;28;20082;-76
2021/04/08 02:30:49;;;;;;;4.22;1.80;;;1.30;99.90;;;;;;5030362;28;20428;-76
2021/04/08 02:33:17;;;;;;;2.45;1.42;;;1.30;99.90;;;;;;5035776;28;20455;-76
2021/04/08 02:35:43;;;;;;;4.03;2.38;;;1.30;99.90;;;;;;5047256;28;20165;-76
2021/04/08 02:38:09;;;;;;;3.83;2.38;;;1.40;99.90;;;;;;5047350;28;20164;-76
2021/04/08 02:40:34;;;;;;;4.85;2.13;;;1.40;99.90;;;;;;5032091;28;20101;-76
2021/04/08 02:43:01;;;;;;;3.20;1.98;;;1.40;99.90;;;;;;5031866;28;20486;-76
2021/04/08 02:45:26;;;;;;;3.78;2.10;;;1.50;99.90;;;;;;5030944;28;20070;-75
2021/04/08 02:47:52;;;;;;;3.45;2.38;;;1.50;99.90;;;;;;5030952;28;20107;-76
2021/04/08 02:50:17;;;;;;;4.38;1.90;;;1.50;99.90;;;;;;5043640;28;20093;-76
2021/04/08 02:52:58;;;;;;;5.55;2.28;;;1.20;99.90;;;;;;5018318;28;20081;-77
2021/04/08 02:55:29;;;;;;;2.85;2.30;;;1.20;99.90;;;;;;5032968;28;20609;-76
2021/04/08 02:58:04;;;;;;;2.80;1.95;;;1.20;99.90;;;;;;5035175;28;20679;-77
2021/04/08 03:00:36;;;;;;;2.72;2.20;;;1.10;99.90;;;;;;5035045;28;20559;-76
2021/04/08 03:03:06;;;;;;;3.47;2.08;;;0.90;99.90;;;;;;5039468;28;20085;-76
2021/04/08 03:05:37;;;;;;;5.90;2.13;;;0.80;99.90;;;;;;5034392;28;20073;-77
2021/04/08 03:08:06;;;;;;;4.25;2.42;;;0.90;99.90;;;;;;5045936;28;20413;-76
2021/04/08 03:10:32;;;;;;;4.07;2.40;;;0.80;99.90;;;;;;5037657;28;20432;-76
2021/04/08 03:13:01;;;;;;;3.50;2.03;;;0.70;99.90;;;;;;5042272;28;20605;-76
2021/04/08 03:15:30;;;;;;;4.03;2.05;;;0.70;99.90;;;;;;5052736;28;20070;-76
2021/04/08 03:17:58;;;;;;;2.60;1.98;;;0.70;99.90;;;;;;5041723;28;20591;-76
2021/04/08 03:20:24;;;;;;;3.65;2.25;;;0.70;99.90;;;;;;5038409;28;20105;-76
2021/04/08 03:22:52;;;;;;;7.90;2.45;;;0.80;99.90;;;;;;5052598;28;20096;-76
2021/04/08 03:25:19;;;;;;;3.08;2.10;;;0.80;99.90;;;;;;5052420;28;20077;-76
2021/04/08 03:27:45;;;;;;;4.20;2.75;;;0.70;99.90;;;;;;5034342;28;20127;-76
2021/04/08 03:30:15;;;;;;;3.83;2.10;;;0.70;99.90;;;;;;5033004;28;20136;-76
2021/04/08 03:32:42;;;;;;;2.95;2.05;;;0.80;99.90;;;;;;5050173;28;20073;-76
2021/04/08 03:35:10;;;;;;;2.67;2.38;;;0.70;99.90;;;;;;5032945;28;20439;-76
2021/04/08 03:37:37;;;;;;;4.57;2.35;;;0.80;99.90;;;;;;5039512;28;20081;-76
2021/04/08 03:40:04;;;;;;;4.03;2.05;;;0.70;99.90;;;;;;5032118;28;20078;-76
2021/04/08 03:42:30;;;;;;;4.90;2.65;;;0.80;99.90;;;;;;5040750;28;20090;-78
2021/04/08 03:44:56;;;;;;;3.65;2.28;;;0.80;99.90;;;;;;5039941;28;20077;-77
2021/04/08 03:47:23;;;;;;;3.53;2.58;;;0.80;99.90;;;;;;5048959;28;20073;-76
2021/04/08 03:49:50;;;;;;;3.10;1.95;;;0.90;99.90;;;;;;5037010;28;20532;-76
2021/04/08 03:52:17;;;;;;;3.83;2.83;;;0.90;99.90;;;;;;5040394;28;20161;-76
2021/04/08 03:54:44;;;;;;;7.75;3.13;;;0.90;99.90;;;;;;5031919;28;20168;-76
2021/04/08 03:57:17;;;;;;;6.38;2.20;;;0.80;99.90;;;;;;5032214;28;20070;-77
2021/04/08 03:59:44;;;;;;;5.40;3.08;;;0.80;99.90;;;;;;5016504;28;20078;-76
2021/04/08 04:02:12;;;;;;;3.90;2.30;;;0.80;99.90;;;;;;5039638;28;20169;-76
2021/04/08 04:04:38;;;;;;;2.95;2.30;;;0.90;99.90;;;;;;5037592;28;20540;-76
2021/04/08 04:07:05;;;;;;;2.95;2.00;;;0.80;99.90;;;;;;5038318;28;20447;-76
2021/04/08 04:09:31;;;;;;;3.42;2.13;;;0.90;99.90;;;;;;5050357;28;20070;-76
2021/04/08 04:11:58;;;;;;;5.25;2.40;;;0.80;99.90;;;;;;5032351;28;20136;-77
2021/04/08 04:14:27;;;;;;;4.20;2.33;;;0.80;99.90;;;;;;5045908;28;20082;-76
2021/04/08 04:16:57;;;;;;;5.93;3.30;;;0.90;99.90;;;;;;5032746;28;20078;-76
2021/04/08 04:19:24;;;;;;;6.53;2.85;;;0.90;99.90;;;;;;5027484;28;20763;-76
2021/04/08 04:21:49;;;;;;;5.53;2.47;;;1.00;99.90;;;;;;5034091;28;20440;-76
2021/04/08 04:24:15;;;;;;;2.88;2.20;;;0.90;99.90;;;;;;5036867;28;20123;-76
2021/04/08 04:26:41;;;;;;;7.22;2.60;;;0.80;99.90;;;;;;5031354;28;20546;-76
2021/04/08 04:29:06;;;;;;;4.18;2.55;;;0.90;99.90;;;;;;5032699;28;20127;-76
2021/04/08 04:31:35;;;;;;;4.05;2.25;;;0.90;99.90;;;;;;5035091;28;20122;-76
2021/04/08 04:34:07;;;;;;;4.43;2.65;;;0.80;99.90;;;;;;5034805;28;20093;-76
2021/04/08 04:36:33;;;;;;;4.28;2.92;;;0.90;99.90;;;;;;5032178;28;20106;-74
2021/04/08 04:39:00;;;;;;;3.70;2.35;;;0.90;99.90;;;;;;5036883;28;20161;-75
2021/04/08 04:41:25;;;;;;;4.22;2.75;;;0.90;99.90;;;;;;5012833;28;20089;-76
2021/04/08 04:43:51;;;;;;;3.95;2.22;;;0.90;99.90;;;;;;5030924;28;20535;-76
2021/04/08 04:46:17;;;;;;;5.63;2.83;;;1.00;99.90;;;;;;5030776;28;20085;-75
2021/04/08 04:48:42;;;;;;;3.70;2.53;;;1.10;99.90;;;;;;5044407;28;20077;-75
2021/04/08 04:51:09;;;;;;;3.58;2.42;;;1.10;99.90;;;;;;5037712;28;20605;-75
2021/04/08 04:53:35;;;;;;;3.05;2.05;;;1.00;99.90;;;;;;5032622;28;20432;-75
2021/04/08 04:56:00;;;;;;;5.60;2.63;;;1.20;99.90;;;;;;5020309;28;20081;-75
2021/04/08 04:58:26;;;;;;;4.75;2.78;;;1.10;99.90;;;;;;5053836;28;20131;-75
2021/04/08 05:00:51;;;;;;;5.28;2.90;;;1.10;99.90;;;;;;5041291;28;20098;-75
2021/04/08 05:03:17;;;;;;;3.85;2.83;;;1.20;99.90;;;;;;5034127;28;20711;-75
2021/04/08 05:05:42;;;;;;;5.70;2.30;;;1.30;99.90;;;;;;5070015;28;20080;-75
2021/04/08 05:08:08;;;;;;;3.75;2.30;;;1.30;99.90;;;;;;5056199;28;20120;-75
2021/04/08 05:10:33;;;;;;;3.95;2.65;;;1.20;99.90;;;;;;5033914;28;20173;-75
2021/04/08 05:12:59;;;;;;;7.07;2.90;;;1.20;99.90;;;;;;5051235;28;20077;-75
2021/04/08 05:15:25;;;;;;;4.32;3.03;;;1.30;99.90;;;;;;5052618;28;20073;-75
2021/04/08 05:17:50;;;;;;;6.15;2.55;;;1.30;99.90;;;;;;5045075;28;20081;-75
2021/04/08 05:20:16;;;;;;;5.18;3.03;;;1.20;99.90;;;;;;5052089;28;20105;-75
2021/04/08 05:22:42;;;;;;;5.18;2.85;;;1.20;99.90;;;;;;5041131;28;20168;-75
2021/04/08 05:25:08;;;;;;;4.97;2.17;;;1.10;99.90;;;;;;5031260;28;20072;-77
2021/04/08 05:27:33;;;;;;;3.58;2.35;;;1.10;99.90;;;;;;5027463;28;20293;-77
2021/04/08 05:30:00;;;;;;;3.50;2.67;;;1.20;99.90;;;;;;5037663;28;20092;-76
2021/04/08 05:32:27;;;;;;;5.72;2.80;;;1.20;99.90;;;;;;5046568;28;20070;-76
2021/04/08 05:34:52;;;;;;;5.18;2.90;;;1.10;99.90;;;;;;5031063;28;20085;-76
2021/04/08 05:37:18;;;;;;;4.70;3.05;;;1.20;99.90;;;;;;5028377;28;20074;-76
2021/04/08 05:39:43;;;;;;;4.15;2.47;;;1.10;99.90;;;;;;5033575;28;20100;-76
2021/04/08 05:42:09;;;;;;;3.30;2.25;;;1.20;99.90;;;;;;5032307;28;20146;-76
2021/04/08 05:44:35;;;;;;;3.40;2.58;;;1.00;99.90;;;;;;5036250;28;20687;-76
2021/04/08 05:47:01;;;;;;;3.83;2.28;;;0.90;99.90;;;;;;5036256;28;20269;-76
2021/04/08 05:49:26;;;;;;;3.50;2.78;;;0.80;99.90;;;;;;5043535;28;20073;-76
2021/04/08 05:51:52;;;;;;;4.60;3.15;;;0.80;99.90;;;;;;5031956;28;20093;-77
2021/04/08 05:54:17;;;;;;;4.78;2.85;;;0.80;99.90;;;;;;5047106;28;20143;-76
2021/04/08 05:56:43;;;;;;;3.65;2.72;;;0.90;99.90;;;;;;5035715;28;20483;-76
2021/04/08 05:59:08;;;;;;;4.10;3.38;;;1.00;99.90;;;;;;5031349;28;20839;-76
2021/04/08 06:01:34;;;;;;;3.47;2.78;;;0.80;99.90;;;;;;5034489;28;20113;-76
2021/04/08 06:04:00;;;;;;;4.90;3.25;;;0.80;99.90;;;;;;5028584;28;20085;-76
2021/04/08 06:06:25;;;;;;;5.15;3.45;;;0.70;99.90;;;;;;5033521;28;20181;-77
2021/04/08 06:08:51;;;;;;;3.33;3.03;;;0.70;99.90;;;;;;5040651;28;20081;-76
2021/04/08 06:11:16;;;;;;;5.00;3.08;;;0.70;99.90;;;;;;5030397;28;20098;-76
2021/04/08 06:13:42;;;;;;;5.82;3.65;;;0.60;99.90;;;;;;5049178;28;20085;-76
2021/04/08 06:16:08;;;;;;;5.32;4.18;;;0.60;99.90;;;;;;5022088;28;20108;-76
2021/04/08 06:18:33;;;;;;;5.20;3.15;;;0.60;99.90;;;;;;5046341;28;20085;-76
2021/04/08 06:20:59;;;;;;;6.05;3.35;;;0.60;99.90;;;;;;5045855;28;20474;-76
2021/04/08 06:23:25;;;;;;;5.20;4.43;;;0.70;99.90;;;;;;5037248;28;20147;-76
2021/04/08 06:25:50;;;;;;;4.35;3.40;;;0.70;99.90;;;;;;5045207;28;20074;-76
2021/04/08 06:28:16;;;;;;;4.25;3.28;;;0.60;99.90;;;;;;5046001;28;20088;-76
2021/04/08 06:30:45;;;;;;;4.10;3.65;;;0.50;99.90;;;;;;5038222;28;20136;-76
2021/04/08 06:33:11;;;;;;;5.95;4.20;;;0.50;99.90;;;;;;5033452;28;20078;-76
2021/04/08 06:35:36;;;;;;;8.30;4.85;;;0.40;99.90;;;;;;5034780;28;20088;-76
2021/04/08 06:38:02;;;;;;;6.65;4.28;;;0.30;99.90;;;;;;5043507;28;20531;-76
2021/04/08 06:40:29;;;;;;;6.13;3.78;;;0.30;99.90;;;;;;5031157;28;20085;-76
2021/04/08 06:42:55;;;;;;;8.38;3.70;;;0.40;99.90;;;;;;5034002;28;20586;-76
2021/04/08 06:45:24;;;;;;;5.55;3.40;;;0.30;99.90;;;;;;5047515;28;20084;-76
2021/04/08 06:48:07;;;;;;;7.18;4.38;;;0.40;99.90;;;;;;5029042;28;20164;-76
2021/04/08 06:50:37;;;;;;;7.20;4.53;;;0.40;99.90;;;;;;5022346;28;20085;-76
2021/04/08 06:53:05;;;;;;;8.02;4.20;;;0.20;99.90;;;;;;5039388;28;20088;-76
2021/04/08 06:55:31;;;;;;;6.55;4.72;;;0.20;99.90;;;;;;5035616;28;20095;-76
2021/04/08 06:58:05;;;;;;;5.95;4.22;;;0.20;99.90;;;;;;5022578;28;20506;-76
2021/04/08 07:00:31;;;;;;;6.45;4.47;;;0.20;99.90;;;;;;5012473;28;20555;-76
2021/04/08 07:03:01;;;;;;;5.57;4.30;;;0.20;99.90;;;;;;5047582;28;20128;-76
2021/04/08 07:05:27;;;;;;;7.05;4.50;;;0.30;99.90;;;;;;5049073;28;20458;-76
2021/04/08 07:07:53;;;;;;;6.55;3.33;;;0.30;99.90;;;;;;5052821;28;20077;-76
2021/04/08 07:10:19;;;;;;;6.93;3.70;;;0.30;99.90;;;;;;5046799;28;20101;-76
2021/04/08 07:12:45;;;;;;;6.15;3.60;;;0.40;99.90;;;;;;5040284;28;20085;-76
2021/04/08 07:15:11;;;;;;;8.98;3.60;;;0.50;99.90;;;;;;5043971;28;20074;-76
2021/04/08 07:17:37;;;;;;;4.63;3.33;;;0.40;99.90;;;;;;5043743;28;20447;-76
2021/04/08 07:20:03;;;;;;;6.10;3.72;;;0.50;99.90;;;;;;5032284;28;20094;-76
2021/04/08 07:22:29;;;;;;;8.00;3.50;;;0.50;99.90;;;;;;5034900;28;20175;-76
2021/04/08 07:24:55;;;;;;;6.68;3.53;;;0.50;99.90;;;;;;5030756;28;20526;-76
2021/04/08 07:27:23;;;;;;;5.68;3.47;;;0.40;99.90;;;;;;5029106;28;20136;-76
2021/04/08 07:29:58;;;;;;;4.40;3.40;;;0.50;99.90;;;;;;5037079;28;20080;-76
2021/04/08 07:32:28;;;;;;;;;;;0.60;99.90;;;;;;5029443;28;20085;-75
2021/04/08 07:35:00;;;;;;;6.97;3.95;;;0.60;99.90;;;;;;5033015;28;19976;-77
2021/04/08 07:37:31;;;;;;;5.10;3.47;;;0.60;99.90;;;;;;5018432;28;20168;-76
2021/04/08 07:40:00;;;;;;;4.13;3.42;;;0.60;99.90;;;;;;5030712;28;20555;-76
2021/04/08 07:42:29;;;;;;;4.78;3.33;;;0.60;99.90;;;;;;5057652;28;20085;-75
2021/04/08 07:44:58;;;;;;;5.22;3.53;;;0.60;99.90;;;;;;5069793;28;20142;-75
2021/04/08 07:47:32;;;;;;;6.22;3.85;;;0.50;99.90;;;;;;5023114;28;20080;-77
2021/04/08 07:50:03;;;;;;;7.63;3.63;;;0.50;99.90;;;;;;5035852;28;20073;-78
2021/04/08 07:52:40;;;;;;;4.35;3.53;;;0.60;99.90;;;;;;5046060;28;20073;-77
2021/04/08 07:55:08;;;;;;;6.72;3.33;;;0.60;99.90;;;;;;5041396;28;20069;-78
2021/04/08 07:58:01;;;;;;;4.25;3.28;;;0.60;99.90;;;;;;5033790;28;20088;-79
2021/04/08 08:00:29;;;;;;;5.50;3.75;;;0.70;99.90;;;;;;5038365;28;20670;-79
2021/04/08 08:02:59;;;;;;;4.85;3.03;;;0.70;99.90;;;;;;5057294;28;20084;-78
2021/04/08 08:05:26;;;;;;;7.82;3.65;;;0.80;99.90;;;;;;5031607;28;20451;-78
2021/04/08 08:07:53;;;;;;;4.25;3.10;;;0.80;99.90;;;;;;5042458;28;20078;-78
2021/04/08 08:10:25;;;;;;;7.13;4.00;;;0.90;99.90;;;;;;5034476;28;20114;-77
2021/04/08 08:12:52;;;;;;;8.88;4.10;;;1.10;99.90;;;;;;5037162;28;20084;-77
2021/04/08 08:15:25;;;;;;;7.43;4.32;;;1.10;99.90;;;;;;5021649;28;20093;-78
2021/04/08 08:17:51;;;;;;;8.18;3.88;;;1.10;99.90;;;;;;5035956;28;20132;-78
2021/04/08 08:20:18;;;;;;;6.18;3.17;;;1.20;99.90;;;;;;5034149;28;20105;-78
2021/04/08 08:22:44;;;;;;;5.78;3.40;;;1.30;99.90;;;;;;5051180;28;20097;-77
2021/04/08 08:25:11;;;;;;;5.75;3.58;;;1.30;99.90;;;;;;5051242;28;20077;-77
2021/04/08 08:27:43;;;;;;;5.43;4.07;;;1.30;99.90;;;;;;5027410;28;20072;-78
2021/04/08 08:30:16;;;;;;;9.50;3.75;;;1.30;99.90;;;;;;5039655;28;20536;-77
2021/04/08 08:33:11;;;;;;;4.50;3.85;;;1.20;99.90;;;;;;5028546;28;20106;-78
2021/04/08 08:35:37;;;;;;;7.43;3.40;;;1.10;99.90;;;;;;5027984;28;20073;-78
2021/04/08 08:38:20;;;;;;;7.30;3.25;;;1.20;99.90;;;;;;5034849;28;20415;-76
2021/04/08 08:40:47;;;;;;;6.55;4.05;;;1.20;99.90;;;;;;5042699;28;20784;-76
2021/04/08 08:43:15;;;;;;;5.03;3.47;;;1.30;99.90;;;;;;5038903;28;20074;-76
2021/04/08 08:45:41;;;;;;;4.78;3.58;;;1.30;99.90;;;;;;5034163;28;20084;-76
2021/04/08 08:48:14;;;;;;;6.43;4.15;;;1.30;99.90;;;;;;5047318;28;20074;-76
2021/04/08 08:50:41;;;;;;;4.18;3.60;;;1.30;99.90;;;;;;5045245;28;20093;-77
2021/04/08 08:53:09;;;;;;;9.93;4.10;;;1.40;99.90;;;;;;5043560;28;20248;-78
2021/04/08 08:55:35;;;;;;;8.70;5.10;;;1.50;99.90;;;;;;5043797;28;20539;-76
2021/04/08 08:58:01;;;;;;;8.18;4.43;;;1.50;99.90;;;;;;5045902;28;20065;-77
2021/04/08 09:00:28;;;;;;;12.90;5.03;;;1.60;99.90;;;;;;5046584;28;20100;-77
2021/04/08 09:02:58;;;;;;;7.60;4.10;;;1.60;99.90;;;;;;5044534;28;20070;-77
2021/04/08 09:05:29;;;;;;;8.60;4.47;;;1.70;99.90;;;;;;5032458;28;20074;-77
2021/04/08 09:07:59;;;;;;;8.15;5.03;;;1.70;99.90;;;;;;5051377;28;20084;-77
2021/04/08 09:10:34;;;;;;;7.15;4.25;;;1.70;99.90;;;;;;5023055;28;20463;-76
2021/04/08 09:13:00;;;;;;;8.23;4.15;;;1.80;99.90;;;;;;5036824;28;20069;-76
2021/04/08 09:15:26;;;;;;;7.53;4.30;;;1.90;99.90;;;;;;5035476;28;20571;-77
2021/04/08 09:18:05;;;;;;;6.65;4.53;;;2.00;99.90;;;;;;5041789;28;20082;-77
2021/04/08 09:20:32;;;;;;;8.70;3.85;;;2.10;99.90;;;;;;5053959;28;20151;-77
2021/04/08 09:23:07;;;;;;;5.50;4.10;;;2.20;99.90;;;;;;5047221;28;20084;-77
2021/04/08 09:25:40;;;;;;;7.70;5.00;;;2.30;99.90;;;;;;5040553;28;20655;-77
2021/04/08 09:28:11;;;;;;;7.00;5.18;;;2.40;99.90;;;;;;5042013;28;20084;-78
2021/04/08 09:31:08;;;;;;;8.60;4.90;;;2.50;99.90;;;;;;5042320;28;20097;-77
2021/04/08 09:33:42;;;;;;;8.07;5.00;;;2.50;99.90;;;;;;5032863;28;20202;-77
2021/04/08 09:36:27;;;;;;;7.07;4.30;;;2.60;99.90;;;;;;5043053;28;20532;-77
2021/04/08 09:38:55;;;;;;;6.90;4.30;;;2.80;99.90;;;;;;5044172;28;20076;-77
2021/04/08 09:41:41;;;;;;;6.05;4.30;;;2.80;99.90;;;;;;5044383;28;20097;-77
2021/04/08 09:44:09;;;;;;;7.40;4.30;;;2.90;99.90;;;;;;5039919;28;20111;-79
2021/04/08 09:46:40;;;;;;;10.68;5.35;;;2.90;99.90;;;;;;5038791;28;20080;-77
2021/04/08 09:49:06;;;;;;;6.72;3.78;;;2.90;99.90;;;;;;5029996;28;20080;-77
2021/04/08 09:51:40;;;;;;;6.30;4.50;;;3.00;99.90;;;;;;5042561;28;20086;-77
2021/04/08 09:54:09;;;;;;;6.30;4.55;;;3.00;99.90;;;;;;5036113;28;20119;-78
2021/04/08 09:56:47;;;;;;;7.32;4.07;;;3.20;99.90;;;;;;5045030;28;20586;-77
2021/04/08 09:59:15;;;;;;;7.45;3.80;;;3.20;99.90;;;;;;5023582;28;20074;-77
2021/04/08 10:01:41;;;;;;;6.15;4.00;;;3.20;99.90;;;;;;5048952;28;20101;-78
2021/04/08 10:04:25;;;;;;;5.70;3.35;;;3.20;99.90;;;;;;5038606;28;20120;-77
2021/04/08 10:07:03;;;;;;;5.22;3.60;;;3.10;99.90;;;;;;5037511;28;21048;-77
2021/04/08 10:09:29;;;;;;;4.50;3.38;;;3.10;99.90;;;;;;5033627;28;20554;-77
2021/04/08 10:11:55;;;;;;;8.15;3.97;;;3.20;99.90;;;;;;5048657;28;20215;-77
2021/04/08 10:14:31;;;;;;;7.50;3.35;;;3.30;99.90;;;;;;5041621;28;20073;-77
2021/04/08 10:17:01;;;;;;;8.05;3.40;;;3.30;99.90;;;;;;5030961;28;20081;-78
2021/04/08 10:19:40;;;;;;;6.43;4.20;;;3.20;99.90;;;;;;5033119;28;20074;-77
2021/04/08 10:22:09;;;;;;;9.65;4.47;;;3.20;99.90;;;;;;5020306;28;20192;-77
2021/04/08 10:24:43;;;;;;;6.07;3.70;;;3.30;99.90;;;;;;5035268;28;20406;-80
2021/04/08 10:27:25;;;;;;;7.37;3.90;;;3.20;99.90;;;;;;5040872;28;20104;-79
2021/04/08 10:29:51;;;;;;;5.85;3.85;;;3.30;99.90;;;;;;5031637;28;20308;-79
2021/04/08 10:32:32;;;;;;;6.05;3.80;;;3.20;99.90;;;;;;5049494;28;20513;-80
2021/04/08 10:34:57;;;;;;;8.07;4.50;;;3.20;99.90;;;;;;5049501;28;20127;-80
2021/04/08 10:37:23;;;;;;;6.25;4.03;;;3.10;99.90;;;;;;5038504;28;20498;-79
2021/04/08 10:39:49;;;;;;;5.60;3.72;;;3.20;99.90;;;;;;5030641;28;20081;-79
2021/04/08 10:42:15;;;;;;;5.53;3.97;;;3.40;99.90;;;;;;5036842;28;20101;-77
2021/04/08 10:44:45;;;;;;;4.78;3.90;;;3.50;99.90;;;;;;5035186;28;20108;-75
2021/04/08 10:47:14;;;;;;;7.80;4.18;;;3.40;99.90;;;;;;5040473;28;20077;-77
2021/04/08 10:49:51;;;;;;;4.47;3.22;;;3.50;99.90;;;;;;5041815;28;20077;-77
2021/04/08 10:52:19;;;;;;;5.20;3.50;;;3.50;99.90;;;;;;5043281;28;20097;-76
2021/04/08 10:54:48;;;;;;;4.78;3.65;;;3.40;99.90;;;;;;5015765;28;20498;-78
2021/04/08 10:57:15;;;;;;;5.53;4.60;;;3.40;99.90;;;;;;5044642;28;20084;-79
2021/04/08 10:59:43;;;;;;;5.43;4.45;;;3.40;99.90;;;;;;5029133;28;20474;-80
2021/04/08 11:02:17;;;;;;;5.65;3.60;;;3.50;99.90;;;;;;5029780;28;20090;-78
2021/04/08 11:04:43;;;;;;;4.82;3.63;;;3.50;99.90;;;;;;5037848;28;20085;-76
2021/04/08 11:07:09;;;;;;;5.28;3.97;;;3.50;99.90;;;;;;5037666;28;20443;-76
2021/04/08 11:09:34;;;;;;;7.40;3.85;;;3.50;99.90;;;;;;5039480;28;20101;-77
2021/04/08 11:12:24;;;;;;;4.57;3.58;;;3.60;99.90;;;;;;5032386;28;20158;-77
2021/04/08 11:14:57;;;;;;;6.55;3.97;;;3.70;99.90;;;;;;5038388;28;20100;-77
2021/04/08 11:17:25;;;;;;;5.43;4.30;;;3.70;99.90;;;;;;5034968;28;20070;-77
2021/04/08 11:19:52;;;;;;;6.82;4.40;;;3.70;99.90;;;;;;5043311;28;20690;-78
2021/04/08 11:22:20;;;;;;;7.65;4.05;;;3.80;99.90;;;;;;5033028;28;20093;-79
2021/04/08 11:24:49;;;;;;;4.35;3.65;;;3.80;99.90;;;;;;5041295;28;20137;-77
2021/04/08 11:27:27;;;;;;;5.82;3.85;;;3.80;99.90;;;;;;5047292;28;20089;-78
2021/04/08 11:29:53;;;;;;;7.00;4.38;;;3.80;99.90;;;;;;5037819;28;20085;-78
2021/04/08 11:32:19;;;;;;;5.93;3.88;;;4.00;99.90;;;;;;5047749;28;20139;-79
2021/04/08 11:34:49;;;;;;;5.25;3.65;;;4.00;99.90;;;;;;5024290;28;20089;-77
2021/04/08 11:37:17;;;;;;;6.15;4.40;;;4.00;99.90;;;;;;5051354;28;20164;-77
2021/04/08 11:39:44;;;;;;;7.40;4.20;;;4.00;99.90;;;;;;5036831;28;20078;-77
2021/04/08 11:42:25;;;;;;;4.60;3.53;;;4.00;99.90;;;;;;5040747;28;20148;-78
2021/04/08 11:44:53;;;;;;;5.80;3.95;;;4.10;99.90;;;;;;5027443;28;20105;-78
2021/04/08 11:47:21;;;;;;;7.38;3.78;;;4.20;99.90;;;;;;5053520;28;20088;-81
2021/04/08 11:49:53;;;;;;;5.40;3.67;;;4.30;99.90;;;;;;5044985;28;20079;-78
2021/04/08 11:52:31;;;;;;;5.50;3.60;;;4.50;99.90;;;;;;5040665;28;20086;-79
2021/04/08 11:55:05;;;;;;;7.15;3.80;;;4.30;99.90;;;;;;5042366;28;20066;-78
2021/04/08 11:57:32;;;;;;;7.25;3.67;;;4.10;99.90;;;;;;5059208;28;20122;-80
2021/04/08 12:00:14;;;;;;;4.93;3.63;;;4.10;99.90;;;;;;5036951;28;20078;-78
2021/04/08 12:02:41;;;;;;;6.35;3.75;;;4.20;99.90;;;;;;5044685;28;20089;-81
2021/04/08 12:05:09;;;;;;;5.78;3.53;;;4.10;99.90;;;;;;5035537;28;20081;-79
2021/04/08 12:07:46;;;;;;;6.03;3.42;;;4.10;99.90;;;;;;5020279;28;20165;-79
2021/04/08 12:10:32;;;;;;;4.72;3.33;;;4.10;99.90;;;;;;5029916;28;20069;-78
2021/04/08 12:13:06;;;;;;;5.53;2.85;;;4.00;99.90;;;;;;5036355;28;20714;-79
2021/04/08 12:15:37;;;;;;;5.80;3.53;;;4.10;99.90;;;;;;5030722;28;20096;-79
2021/04/08 12:18:10;;;;;;;12.13;3.30;;;4.10;99.90;;;;;;5055666;28;20078;-80
2021/04/08 12:20:36;;;;;;;5.95;3.25;;;4.10;99.90;;;;;;5031293;28;20105;-79
2021/04/08 12:23:13;;;;;;;7.57;4.25;;;4.20;99.90;;;;;;5038226;28;20082;-83
2021/04/08 12:25:47;;;;;;;8.88;4.47;;;4.20;99.90;;;;;;5046754;28;20062;-79
2021/04/08 12:28:13;;;;;;;;;;;4.30;99.90;;;;;;5052540;28;20070;-79
2021/04/08 12:30:46;;;;;;;7.90;5.07;;;4.50;99.90;;;;;;5030119;28;19980;-80
2021/04/08 12:33:16;;;;;;;7.25;4.22;;;4.70;99.90;;;;;;5038948;28;20593;-79
2021/04/08 12:35:42;;;;;;;8.32;4.00;;;4.70;99.90;;;;;;5038050;28;20156;-80
2021/04/08 12:38:08;;;;;;;6.85;4.65;;;4.70;99.90;;;;;;5054693;28;20138;-81
2021/04/08 12:40:33;;;;;;;6.18;3.45;;;4.70;99.90;;;;;;5060685;28;20078;-81
2021/04/08 12:42:59;;;;;;;6.60;4.18;;;4.70;99.90;;;;;;5059894;28;20101;-81
2021/04/08 12:45:25;;;;;;;6.45;3.70;;;4.70;99.90;;;;;;5052199;28;20089;-79
2021/04/08 12:47:50;;;;;;;5.10;3.78;;;4.80;99.90;;;;;;5056714;28;20085;-80
2021/04/08 12:50:16;;;;;;;5.35;4.22;;;5.00;99.90;;;;;;5034727;28;20100;-78
2021/04/08 12:52:41;;;;;;;4.63;3.75;;;5.00;99.90;;;;;;5028801;28;20070;-80
2021/04/08 12:55:07;;;;;;;6.70;3.90;;;5.10;99.90;;;;;;5056348;28;20085;-78
2021/04/08 12:57:34;;;;;;;5.75;3.47;;;5.20;99.90;;;;;;5047551;28;20086;-79
2021/04/08 12:59:59;;;;;;;5.20;4.53;;;5.30;99.90;;;;;;5037588;28;20140;-78
2021/04/08 13:02:25;;;;;;;4.65;4.10;;;5.30;99.90;;;;;;5036101;28;20507;-79
2021/04/08 13:04:51;;;;;;;7.93;3.88;;;5.40;99.90;;;;;;5048978;28;20799;-80
2021/04/08 13:07:16;;;;;;;8.75;4.78;;;5.50;99.90;;;;;;5032778;28;20077;-80